sensor_id;sensor_type;location;lat;lon;timestamp;P1;durP1;ratioP1;P2;durP2;ratioP2
63902;SDS011;50072;50.678;13.938;2022-12-24T00:02:19;84.10;;;37.17;;
63902;SDS011;50072;50.678;13.938;2022-12-24T00:04:45;81.00;;;36.13;;
63902;SDS011;50072;50.678;13.938;2022-12-24T00:07:11;70.38;;;32.17;;
63902;SDS011;50072;50.678;13.938;2022-12-24T00:09:37;67.32;;;32.50;;
63902;SDS011;50072;50.678;13.938;2022-12-24T00:12:03;65.15;;;31.42;;
63902;SDS011;50072;50.678;13.938;2022-12-24T00:14:29;53.47;;;26.50;;
63902;SDS011;50072;50.678;13.938;2022-12-24T00:16:55;55.10;;;25.27;;
63902;SDS011;50072;50.678;13.938;2022-12-24T00:19:21;52.92;;;27.33;;
63902;SDS011;50072;50.678;13.938;2022-12-24T00:21:47;41.67;;;21.50;;
63902;SDS011;50072;50.678;13.938;2022-12-24T00:24:13;43.63;;;22.83;;
63902;SDS011;50072;50.678;13.938;2022-12-24T00:26:39;40.35;;;20.15;;
63902;SDS011;50072;50.678;13.938;2022-12-24T00:29:05;36.00;;;20.02;;
63902;SDS011;50072;50.678;13.938;2022-12-24T00:34:05;39.15;;;21.52;;
63902;SDS011;50072;50.678;13.938;2022-12-24T00:39:06;41.63;;;21.63;;
63902;SDS011;50072;50.678;13.938;2022-12-24T00:41:32;45.95;;;23.90;;
63902;SDS011;50072;50.678;13.938;2022-12-24T00:44:06;55.85;;;27.35;;
63902;SDS011;50072;50.678;13.938;2022-12-24T00:46:38;52.47;;;25.63;;
63902;SDS011;50072;50.678;13.938;2022-12-24T00:49:06;46.80;;;22.92;;
63902;SDS011;50072;50.678;13.938;2022-12-24T00:51:36;44.08;;;21.20;;
63902;SDS011;50072;50.678;13.938;2022-12-24T00:54:06;41.60;;;21.38;;
63902;SDS011;50072;50.678;13.938;2022-12-24T00:59:07;40.80;;;19.65;;
63902;SDS011;50072;50.678;13.938;2022-12-24T01:01:35;36.38;;;18.58;;
63902;SDS011;50072;50.678;13.938;2022-12-24T01:04:06;33.92;;;19.10;;
63902;SDS011;50072;50.678;13.938;2022-12-24T01:06:50;37.53;;;18.90;;
63902;SDS011;50072;50.678;13.938;2022-12-24T01:09:16;33.75;;;17.20;;
63902;SDS011;50072;50.678;13.938;2022-12-24T01:11:41;38.78;;;17.60;;
63902;SDS011;50072;50.678;13.938;2022-12-24T01:14:07;35.47;;;17.95;;
63902;SDS011;50072;50.678;13.938;2022-12-24T01:16:33;36.15;;;17.90;;
63902;SDS011;50072;50.678;13.938;2022-12-24T01:18:59;42.53;;;20.60;;
63902;SDS011;50072;50.678;13.938;2022-12-24T01:21:25;41.80;;;21.35;;
63902;SDS011;50072;50.678;13.938;2022-12-24T01:23:51;47.75;;;21.30;;
63902;SDS011;50072;50.678;13.938;2022-12-24T01:26:17;53.20;;;24.73;;
63902;SDS011;50072;50.678;13.938;2022-12-24T01:28:43;51.33;;;25.55;;
63902;SDS011;50072;50.678;13.938;2022-12-24T01:31:10;53.88;;;25.42;;
63902;SDS011;50072;50.678;13.938;2022-12-24T01:33:40;54.30;;;24.63;;
63902;SDS011;50072;50.678;13.938;2022-12-24T01:36:07;43.88;;;20.85;;
63902;SDS011;50072;50.678;13.938;2022-12-24T01:38:33;71.90;;;26.13;;
63902;SDS011;50072;50.678;13.938;2022-12-24T01:40:59;53.50;;;24.35;;
63902;SDS011;50072;50.678;13.938;2022-12-24T01:43:44;58.75;;;22.83;;
63902;SDS011;50072;50.678;13.938;2022-12-24T01:46:19;51.53;;;20.95;;
63902;SDS011;50072;50.678;13.938;2022-12-24T01:48:55;48.13;;;19.73;;
63902;SDS011;50072;50.678;13.938;2022-12-24T01:53:58;69.38;;;21.67;;
63902;SDS011;50072;50.678;13.938;2022-12-24T01:56:32;64.70;;;22.55;;
63902;SDS011;50072;50.678;13.938;2022-12-24T01:59:03;52.70;;;18.48;;
63902;SDS011;50072;50.678;13.938;2022-12-24T02:01:32;56.28;;;20.00;;
63902;SDS011;50072;50.678;13.938;2022-12-24T02:04:01;63.78;;;21.45;;
63902;SDS011;50072;50.678;13.938;2022-12-24T02:06:36;74.28;;;21.42;;
63902;SDS011;50072;50.678;13.938;2022-12-24T02:09:02;68.22;;;22.00;;
63902;SDS011;50072;50.678;13.938;2022-12-24T02:11:28;65.03;;;20.98;;
63902;SDS011;50072;50.678;13.938;2022-12-24T02:13:56;66.85;;;21.40;;
63902;SDS011;50072;50.678;13.938;2022-12-24T02:21:59;73.07;;;19.95;;
63902;SDS011;50072;50.678;13.938;2022-12-24T02:30:54;77.65;;;23.63;;
63902;SDS011;50072;50.678;13.938;2022-12-24T02:38:51;66.97;;;22.02;;
63902;SDS011;50072;50.678;13.938;2022-12-24T02:41:28;67.03;;;19.70;;
63902;SDS011;50072;50.678;13.938;2022-12-24T02:44:19;65.63;;;21.00;;
63902;SDS011;50072;50.678;13.938;2022-12-24T02:46:48;69.93;;;20.42;;
63902;SDS011;50072;50.678;13.938;2022-12-24T02:49:14;70.35;;;19.70;;
63902;SDS011;50072;50.678;13.938;2022-12-24T02:51:40;69.50;;;18.85;;
63902;SDS011;50072;50.678;13.938;2022-12-24T02:54:06;65.32;;;20.08;;
63902;SDS011;50072;50.678;13.938;2022-12-24T03:07:21;61.20;;;17.25;;
63902;SDS011;50072;50.678;13.938;2022-12-24T03:12:43;73.82;;;19.38;;
63902;SDS011;50072;50.678;13.938;2022-12-24T03:15:14;95.22;;;21.27;;
63902;SDS011;50072;50.678;13.938;2022-12-24T03:17:42;117.30;;;22.02;;
63902;SDS011;50072;50.678;13.938;2022-12-24T03:20:11;112.78;;;27.25;;
63902;SDS011;50072;50.678;13.938;2022-12-24T03:22:44;87.35;;;23.58;;
63902;SDS011;50072;50.678;13.938;2022-12-24T03:25:09;97.95;;;24.73;;
63902;SDS011;50072;50.678;13.938;2022-12-24T03:27:36;95.70;;;23.25;;
63902;SDS011;50072;50.678;13.938;2022-12-24T03:30:03;107.07;;;23.60;;
63902;SDS011;50072;50.678;13.938;2022-12-24T03:32:33;110.25;;;22.92;;
63902;SDS011;50072;50.678;13.938;2022-12-24T03:34:59;155.13;;;25.63;;
63902;SDS011;50072;50.678;13.938;2022-12-24T03:37:25;127.95;;;24.58;;
63902;SDS011;50072;50.678;13.938;2022-12-24T03:39:51;119.03;;;24.55;;
63902;SDS011;50072;50.678;13.938;2022-12-24T03:42:17;160.82;;;26.90;;
63902;SDS011;50072;50.678;13.938;2022-12-24T03:44:43;133.38;;;26.70;;
63902;SDS011;50072;50.678;13.938;2022-12-24T03:47:09;114.80;;;23.45;;
63902;SDS011;50072;50.678;13.938;2022-12-24T03:49:35;139.20;;;27.48;;
63902;SDS011;50072;50.678;13.938;2022-12-24T03:52:01;125.47;;;23.70;;
63902;SDS011;50072;50.678;13.938;2022-12-24T03:54:26;106.55;;;24.83;;
63902;SDS011;50072;50.678;13.938;2022-12-24T03:56:52;125.43;;;22.25;;
63902;SDS011;50072;50.678;13.938;2022-12-24T03:59:18;128.18;;;25.38;;
63902;SDS011;50072;50.678;13.938;2022-12-24T04:01:44;144.35;;;24.73;;
63902;SDS011;50072;50.678;13.938;2022-12-24T04:04:09;113.78;;;27.60;;
63902;SDS011;50072;50.678;13.938;2022-12-24T04:06:35;123.43;;;29.33;;
63902;SDS011;50072;50.678;13.938;2022-12-24T04:09:01;157.63;;;32.22;;
63902;SDS011;50072;50.678;13.938;2022-12-24T04:11:30;146.50;;;28.08;;
63902;SDS011;50072;50.678;13.938;2022-12-24T04:13:57;122.40;;;26.30;;
63902;SDS011;50072;50.678;13.938;2022-12-24T04:16:23;126.07;;;26.90;;
63902;SDS011;50072;50.678;13.938;2022-12-24T04:18:49;138.73;;;26.70;;
63902;SDS011;50072;50.678;13.938;2022-12-24T04:21:15;126.75;;;27.42;;
63902;SDS011;50072;50.678;13.938;2022-12-24T04:23:41;115.38;;;23.85;;
63902;SDS011;50072;50.678;13.938;2022-12-24T04:26:08;100.55;;;18.42;;
63902;SDS011;50072;50.678;13.938;2022-12-24T04:28:35;100.38;;;18.85;;
63902;SDS011;50072;50.678;13.938;2022-12-24T04:31:04;70.35;;;15.68;;
63902;SDS011;50072;50.678;13.938;2022-12-24T04:33:31;78.20;;;18.02;;
63902;SDS011;50072;50.678;13.938;2022-12-24T04:35:57;72.10;;;18.88;;
63902;SDS011;50072;50.678;13.938;2022-12-24T04:38:24;77.60;;;16.85;;
63902;SDS011;50072;50.678;13.938;2022-12-24T04:41:06;61.38;;;15.30;;
63902;SDS011;50072;50.678;13.938;2022-12-24T04:43:35;81.45;;;16.30;;
63902;SDS011;50072;50.678;13.938;2022-12-24T04:46:05;49.70;;;15.65;;
63902;SDS011;50072;50.678;13.938;2022-12-24T04:48:37;42.15;;;15.10;;
63902;SDS011;50072;50.678;13.938;2022-12-24T04:51:06;41.95;;;14.93;;
63902;SDS011;50072;50.678;13.938;2022-12-24T04:56:09;39.50;;;13.88;;
63902;SDS011;50072;50.678;13.938;2022-12-24T04:58:55;35.72;;;13.75;;
63902;SDS011;50072;50.678;13.938;2022-12-24T05:01:22;34.08;;;14.80;;
63902;SDS011;50072;50.678;13.938;2022-12-24T05:03:50;33.97;;;14.57;;
63902;SDS011;50072;50.678;13.938;2022-12-24T05:06:26;36.38;;;13.43;;
63902;SDS011;50072;50.678;13.938;2022-12-24T05:09:03;32.50;;;13.80;;
63902;SDS011;50072;50.678;13.938;2022-12-24T05:11:35;36.72;;;12.77;;
63902;SDS011;50072;50.678;13.938;2022-12-24T05:14:02;39.67;;;16.90;;
63902;SDS011;50072;50.678;13.938;2022-12-24T05:16:36;33.33;;;14.05;;
63902;SDS011;50072;50.678;13.938;2022-12-24T05:21:37;38.75;;;14.20;;
63902;SDS011;50072;50.678;13.938;2022-12-24T05:24:06;31.48;;;12.50;;
63902;SDS011;50072;50.678;13.938;2022-12-24T05:26:52;36.03;;;16.30;;
63902;SDS011;50072;50.678;13.938;2022-12-24T05:29:20;33.80;;;14.85;;
63902;SDS011;50072;50.678;13.938;2022-12-24T05:31:47;29.35;;;11.77;;
63902;SDS011;50072;50.678;13.938;2022-12-24T05:34:13;27.80;;;11.80;;
63902;SDS011;50072;50.678;13.938;2022-12-24T05:36:40;26.80;;;11.35;;
63902;SDS011;50072;50.678;13.938;2022-12-24T05:39:07;28.70;;;11.02;;
63902;SDS011;50072;50.678;13.938;2022-12-24T05:41:35;17.65;;;7.15;;
63902;SDS011;50072;50.678;13.938;2022-12-24T05:44:00;24.63;;;9.45;;
63902;SDS011;50072;50.678;13.938;2022-12-24T05:46:26;11.98;;;4.30;;
63902;SDS011;50072;50.678;13.938;2022-12-24T05:48:52;12.60;;;3.92;;
63902;SDS011;50072;50.678;13.938;2022-12-24T05:51:19;12.85;;;2.60;;
63902;SDS011;50072;50.678;13.938;2022-12-24T05:53:46;6.13;;;1.95;;
63902;SDS011;50072;50.678;13.938;2022-12-24T05:56:14;7.22;;;1.70;;
63902;SDS011;50072;50.678;13.938;2022-12-24T05:58:43;8.68;;;1.70;;
63902;SDS011;50072;50.678;13.938;2022-12-24T06:01:10;8.43;;;1.90;;
63902;SDS011;50072;50.678;13.938;2022-12-24T06:03:36;7.30;;;1.80;;
63902;SDS011;50072;50.678;13.938;2022-12-24T06:06:04;6.70;;;2.00;;
63902;SDS011;50072;50.678;13.938;2022-12-24T06:08:33;5.53;;;1.42;;
63902;SDS011;50072;50.678;13.938;2022-12-24T06:11:01;6.55;;;1.83;;
63902;SDS011;50072;50.678;13.938;2022-12-24T06:13:28;4.72;;;1.77;;
63902;SDS011;50072;50.678;13.938;2022-12-24T06:15:55;8.13;;;1.65;;
63902;SDS011;50072;50.678;13.938;2022-12-24T06:18:22;4.97;;;1.80;;
63902;SDS011;50072;50.678;13.938;2022-12-24T06:20:54;5.88;;;1.55;;
63902;SDS011;50072;50.678;13.938;2022-12-24T06:23:21;5.50;;;1.50;;
63902;SDS011;50072;50.678;13.938;2022-12-24T06:25:48;8.30;;;1.75;;
63902;SDS011;50072;50.678;13.938;2022-12-24T06:28:15;8.52;;;2.50;;
63902;SDS011;50072;50.678;13.938;2022-12-24T06:30:44;5.53;;;1.42;;
63902;SDS011;50072;50.678;13.938;2022-12-24T06:33:11;3.92;;;1.40;;
63902;SDS011;50072;50.678;13.938;2022-12-24T06:35:38;9.10;;;1.95;;
63902;SDS011;50072;50.678;13.938;2022-12-24T06:38:04;3.60;;;1.58;;
63902;SDS011;50072;50.678;13.938;2022-12-24T06:40:30;8.20;;;2.25;;
63902;SDS011;50072;50.678;13.938;2022-12-24T06:42:57;8.35;;;2.40;;
63902;SDS011;50072;50.678;13.938;2022-12-24T06:45:23;6.20;;;1.83;;
63902;SDS011;50072;50.678;13.938;2022-12-24T06:47:49;6.70;;;1.77;;
63902;SDS011;50072;50.678;13.938;2022-12-24T06:50:15;7.80;;;1.67;;
63902;SDS011;50072;50.678;13.938;2022-12-24T06:52:42;5.75;;;2.30;;
63902;SDS011;50072;50.678;13.938;2022-12-24T06:55:08;6.47;;;2.92;;
63902;SDS011;50072;50.678;13.938;2022-12-24T06:57:34;9.50;;;2.10;;
63902;SDS011;50072;50.678;13.938;2022-12-24T07:00:00;33.95;;;12.60;;
63902;SDS011;50072;50.678;13.938;2022-12-24T07:02:26;88.68;;;40.22;;
63902;SDS011;50072;50.678;13.938;2022-12-24T07:04:52;12.95;;;3.20;;
63902;SDS011;50072;50.678;13.938;2022-12-24T07:07:17;19.90;;;9.75;;
63902;SDS011;50072;50.678;13.938;2022-12-24T07:09:44;8.80;;;2.72;;
63902;SDS011;50072;50.678;13.938;2022-12-24T07:12:09;3.78;;;1.75;;
63902;SDS011;50072;50.678;13.938;2022-12-24T07:14:35;10.68;;;2.50;;
63902;SDS011;50072;50.678;13.938;2022-12-24T07:17:01;6.20;;;1.63;;
63902;SDS011;50072;50.678;13.938;2022-12-24T07:19:27;10.45;;;2.22;;
63902;SDS011;50072;50.678;13.938;2022-12-24T07:21:53;8.85;;;1.85;;
63902;SDS011;50072;50.678;13.938;2022-12-24T07:24:19;8.80;;;1.98;;
63902;SDS011;50072;50.678;13.938;2022-12-24T07:26:44;5.57;;;2.03;;
63902;SDS011;50072;50.678;13.938;2022-12-24T07:29:10;10.93;;;2.80;;
63902;SDS011;50072;50.678;13.938;2022-12-24T07:31:36;10.30;;;2.53;;
63902;SDS011;50072;50.678;13.938;2022-12-24T07:34:02;6.50;;;2.20;;
63902;SDS011;50072;50.678;13.938;2022-12-24T07:36:27;12.32;;;3.95;;
63902;SDS011;50072;50.678;13.938;2022-12-24T07:38:54;7.18;;;2.50;;
63902;SDS011;50072;50.678;13.938;2022-12-24T07:41:19;9.52;;;2.50;;
63902;SDS011;50072;50.678;13.938;2022-12-24T07:43:46;12.10;;;3.58;;
63902;SDS011;50072;50.678;13.938;2022-12-24T07:46:12;7.18;;;3.30;;
63902;SDS011;50072;50.678;13.938;2022-12-24T07:48:38;11.23;;;2.88;;
63902;SDS011;50072;50.678;13.938;2022-12-24T07:51:04;5.53;;;2.20;;
63902;SDS011;50072;50.678;13.938;2022-12-24T07:53:30;7.88;;;2.50;;
63902;SDS011;50072;50.678;13.938;2022-12-24T07:55:56;10.00;;;2.35;;
63902;SDS011;50072;50.678;13.938;2022-12-24T07:58:22;8.98;;;2.70;;
63902;SDS011;50072;50.678;13.938;2022-12-24T08:00:48;10.32;;;3.40;;
63902;SDS011;50072;50.678;13.938;2022-12-24T08:03:17;11.07;;;2.50;;
63902;SDS011;50072;50.678;13.938;2022-12-24T08:05:44;7.95;;;2.97;;
63902;SDS011;50072;50.678;13.938;2022-12-24T08:08:11;10.30;;;3.40;;
63902;SDS011;50072;50.678;13.938;2022-12-24T08:10:41;12.68;;;3.97;;
63902;SDS011;50072;50.678;13.938;2022-12-24T08:13:07;12.15;;;3.38;;
63902;SDS011;50072;50.678;13.938;2022-12-24T08:15:33;8.90;;;2.80;;
63902;SDS011;50072;50.678;13.938;2022-12-24T08:17:59;16.85;;;4.28;;
63902;SDS011;50072;50.678;13.938;2022-12-24T08:20:25;11.18;;;2.35;;
63902;SDS011;50072;50.678;13.938;2022-12-24T08:22:51;14.45;;;3.10;;
63902;SDS011;50072;50.678;13.938;2022-12-24T08:25:17;11.00;;;3.05;;
63902;SDS011;50072;50.678;13.938;2022-12-24T08:27:45;7.03;;;2.15;;
63902;SDS011;50072;50.678;13.938;2022-12-24T08:30:11;7.40;;;2.00;;
63902;SDS011;50072;50.678;13.938;2022-12-24T08:32:38;10.40;;;2.60;;
63902;SDS011;50072;50.678;13.938;2022-12-24T08:35:04;9.55;;;2.67;;
63902;SDS011;50072;50.678;13.938;2022-12-24T08:37:31;7.43;;;2.55;;
63902;SDS011;50072;50.678;13.938;2022-12-24T08:39:57;8.05;;;2.45;;
63902;SDS011;50072;50.678;13.938;2022-12-24T08:42:23;8.93;;;2.90;;
63902;SDS011;50072;50.678;13.938;2022-12-24T08:44:49;6.63;;;2.40;;
63902;SDS011;50072;50.678;13.938;2022-12-24T08:47:15;7.60;;;2.60;;
63902;SDS011;50072;50.678;13.938;2022-12-24T08:49:41;11.13;;;2.78;;
63902;SDS011;50072;50.678;13.938;2022-12-24T08:52:07;6.88;;;2.45;;
63902;SDS011;50072;50.678;13.938;2022-12-24T08:54:32;9.30;;;3.08;;
63902;SDS011;50072;50.678;13.938;2022-12-24T08:56:58;8.20;;;2.97;;
63902;SDS011;50072;50.678;13.938;2022-12-24T08:59:25;7.05;;;2.50;;
63902;SDS011;50072;50.678;13.938;2022-12-24T09:01:52;8.77;;;2.63;;
63902;SDS011;50072;50.678;13.938;2022-12-24T09:04:18;10.35;;;2.38;;
63902;SDS011;50072;50.678;13.938;2022-12-24T09:06:46;9.10;;;2.30;;
63902;SDS011;50072;50.678;13.938;2022-12-24T09:09:11;11.55;;;2.20;;
63902;SDS011;50072;50.678;13.938;2022-12-24T09:14:06;12.52;;;3.47;;
63902;SDS011;50072;50.678;13.938;2022-12-24T09:16:33;9.70;;;3.17;;
63902;SDS011;50072;50.678;13.938;2022-12-24T09:19:00;13.35;;;2.88;;
63902;SDS011;50072;50.678;13.938;2022-12-24T09:21:27;12.70;;;2.80;;
63902;SDS011;50072;50.678;13.938;2022-12-24T09:23:53;13.73;;;3.85;;
63902;SDS011;50072;50.678;13.938;2022-12-24T09:26:21;65.68;;;14.40;;
63902;SDS011;50072;50.678;13.938;2022-12-24T09:28:48;11.82;;;2.88;;
63902;SDS011;50072;50.678;13.938;2022-12-24T09:31:15;16.55;;;4.45;;
63902;SDS011;50072;50.678;13.938;2022-12-24T09:33:43;17.02;;;3.30;;
63902;SDS011;50072;50.678;13.938;2022-12-24T09:36:10;15.52;;;3.83;;
63902;SDS011;50072;50.678;13.938;2022-12-24T09:38:37;20.77;;;5.30;;
63902;SDS011;50072;50.678;13.938;2022-12-24T09:44:02;10.57;;;2.28;;
63902;SDS011;50072;50.678;13.938;2022-12-24T09:46:44;9.13;;;2.25;;
63902;SDS011;50072;50.678;13.938;2022-12-24T09:49:25;15.90;;;3.72;;
63902;SDS011;50072;50.678;13.938;2022-12-24T09:52:00;12.73;;;2.83;;
63902;SDS011;50072;50.678;13.938;2022-12-24T09:54:34;10.35;;;3.95;;
63902;SDS011;50072;50.678;13.938;2022-12-24T09:57:07;11.77;;;3.33;;
63902;SDS011;50072;50.678;13.938;2022-12-24T09:59:42;7.13;;;1.63;;
63902;SDS011;50072;50.678;13.938;2022-12-24T10:02:13;9.23;;;2.88;;
63902;SDS011;50072;50.678;13.938;2022-12-24T10:04:40;8.68;;;2.20;;
63902;SDS011;50072;50.678;13.938;2022-12-24T10:23:20;6.90;;;2.05;;
63902;SDS011;50072;50.678;13.938;2022-12-24T10:28:40;14.93;;;3.03;;
63902;SDS011;50072;50.678;13.938;2022-12-24T10:31:07;8.35;;;2.30;;
63902;SDS011;50072;50.678;13.938;2022-12-24T10:36:20;8.00;;;2.00;;
63902;SDS011;50072;50.678;13.938;2022-12-24T10:38:54;10.65;;;2.88;;
63902;SDS011;50072;50.678;13.938;2022-12-24T10:41:21;10.45;;;2.72;;
63902;SDS011;50072;50.678;13.938;2022-12-24T10:43:49;8.30;;;1.60;;
63902;SDS011;50072;50.678;13.938;2022-12-24T10:46:32;11.55;;;2.00;;
63902;SDS011;50072;50.678;13.938;2022-12-24T10:49:03;18.48;;;5.00;;
63902;SDS011;50072;50.678;13.938;2022-12-24T10:51:52;19.15;;;5.60;;
63902;SDS011;50072;50.678;13.938;2022-12-24T10:54:26;30.83;;;8.50;;
63902;SDS011;50072;50.678;13.938;2022-12-24T10:57:01;13.27;;;2.95;;
63902;SDS011;50072;50.678;13.938;2022-12-24T10:59:48;9.77;;;2.83;;
63902;SDS011;50072;50.678;13.938;2022-12-24T11:04:56;11.73;;;2.55;;
63902;SDS011;50072;50.678;13.938;2022-12-24T11:07:24;19.25;;;6.22;;
63902;SDS011;50072;50.678;13.938;2022-12-24T11:09:58;15.50;;;3.83;;
63902;SDS011;50072;50.678;13.938;2022-12-24T11:12:33;7.63;;;2.10;;
63902;SDS011;50072;50.678;13.938;2022-12-24T11:15:03;7.80;;;1.90;;
63902;SDS011;50072;50.678;13.938;2022-12-24T11:17:33;11.43;;;2.72;;
63902;SDS011;50072;50.678;13.938;2022-12-24T11:20:02;6.78;;;1.60;;
63902;SDS011;50072;50.678;13.938;2022-12-24T11:22:29;3.78;;;1.63;;
63902;SDS011;50072;50.678;13.938;2022-12-24T11:25:03;5.50;;;1.92;;
63902;SDS011;50072;50.678;13.938;2022-12-24T11:27:37;5.15;;;1.42;;
63902;SDS011;50072;50.678;13.938;2022-12-24T11:32:49;4.95;;;1.58;;
63902;SDS011;50072;50.678;13.938;2022-12-24T11:35:40;7.18;;;1.60;;
63902;SDS011;50072;50.678;13.938;2022-12-24T11:38:10;8.38;;;1.70;;
63902;SDS011;50072;50.678;13.938;2022-12-24T11:43:33;2.75;;;1.30;;
63902;SDS011;50072;50.678;13.938;2022-12-24T11:46:34;3.08;;;1.17;;
63902;SDS011;50072;50.678;13.938;2022-12-24T11:54:18;5.72;;;1.77;;
63902;SDS011;50072;50.678;13.938;2022-12-24T11:56:51;12.95;;;4.30;;
63902;SDS011;50072;50.678;13.938;2022-12-24T12:02:02;13.95;;;4.47;;
63902;SDS011;50072;50.678;13.938;2022-12-24T12:04:41;8.30;;;2.85;;
63902;SDS011;50072;50.678;13.938;2022-12-24T12:07:12;9.68;;;2.45;;
63902;SDS011;50072;50.678;13.938;2022-12-24T12:09:44;9.07;;;3.20;;
63902;SDS011;50072;50.678;13.938;2022-12-24T12:12:20;10.85;;;3.60;;
63902;SDS011;50072;50.678;13.938;2022-12-24T12:25:49;6.03;;;2.03;;
63902;SDS011;50072;50.678;13.938;2022-12-24T12:28:21;12.95;;;4.28;;
63902;SDS011;50072;50.678;13.938;2022-12-24T12:31:01;6.25;;;1.92;;
63902;SDS011;50072;50.678;13.938;2022-12-24T12:34:12;4.93;;;1.85;;
63902;SDS011;50072;50.678;13.938;2022-12-24T12:39:22;7.18;;;2.40;;
63902;SDS011;50072;50.678;13.938;2022-12-24T12:49:59;17.08;;;5.10;;
63902;SDS011;50072;50.678;13.938;2022-12-24T13:07:50;14.93;;;5.25;;
63902;SDS011;50072;50.678;13.938;2022-12-24T13:10:37;9.20;;;4.00;;
63902;SDS011;50072;50.678;13.938;2022-12-24T13:13:28;9.02;;;4.65;;
63902;SDS011;50072;50.678;13.938;2022-12-24T13:19:14;12.18;;;4.75;;
63902;SDS011;50072;50.678;13.938;2022-12-24T13:21:47;21.80;;;6.93;;
63902;SDS011;50072;50.678;13.938;2022-12-24T13:24:18;30.20;;;10.45;;
63902;SDS011;50072;50.678;13.938;2022-12-24T13:34:49;11.25;;;5.05;;
63902;SDS011;50072;50.678;13.938;2022-12-24T13:37:20;11.43;;;5.85;;
63902;SDS011;50072;50.678;13.938;2022-12-24T13:50:36;15.13;;;4.50;;
63902;SDS011;50072;50.678;13.938;2022-12-24T13:58:27;7.73;;;2.80;;
63902;SDS011;50072;50.678;13.938;2022-12-24T14:01:01;10.88;;;3.95;;
63902;SDS011;50072;50.678;13.938;2022-12-24T14:03:40;15.15;;;5.35;;
63902;SDS011;50072;50.678;13.938;2022-12-24T14:06:20;12.02;;;6.28;;
63902;SDS011;50072;50.678;13.938;2022-12-24T14:08:50;8.90;;;3.83;;
63902;SDS011;50072;50.678;13.938;2022-12-24T14:11:21;11.07;;;4.10;;
63902;SDS011;50072;50.678;13.938;2022-12-24T14:13:51;8.38;;;3.38;;
63902;SDS011;50072;50.678;13.938;2022-12-24T14:16:21;11.85;;;3.78;;
63902;SDS011;50072;50.678;13.938;2022-12-24T14:18:59;9.60;;;3.33;;
63902;SDS011;50072;50.678;13.938;2022-12-24T14:21:31;19.80;;;6.32;;
63902;SDS011;50072;50.678;13.938;2022-12-24T14:24:20;21.23;;;7.78;;
63902;SDS011;50072;50.678;13.938;2022-12-24T14:26:53;34.80;;;10.55;;
63902;SDS011;50072;50.678;13.938;2022-12-24T14:29:27;11.90;;;4.85;;
63902;SDS011;50072;50.678;13.938;2022-12-24T14:31:57;14.75;;;5.60;;
63902;SDS011;50072;50.678;13.938;2022-12-24T14:34:24;21.80;;;6.25;;
63902;SDS011;50072;50.678;13.938;2022-12-24T14:36:51;27.55;;;9.13;;
63902;SDS011;50072;50.678;13.938;2022-12-24T14:41:58;40.25;;;12.73;;
63902;SDS011;50072;50.678;13.938;2022-12-24T14:55:39;24.30;;;8.98;;
63902;SDS011;50072;50.678;13.938;2022-12-24T14:58:17;22.70;;;8.07;;
63902;SDS011;50072;50.678;13.938;2022-12-24T15:00:56;11.65;;;4.35;;
63902;SDS011;50072;50.678;13.938;2022-12-24T15:03:43;22.67;;;6.22;;
63902;SDS011;50072;50.678;13.938;2022-12-24T15:06:09;13.65;;;4.50;;
63902;SDS011;50072;50.678;13.938;2022-12-24T15:08:44;13.38;;;4.82;;
63902;SDS011;50072;50.678;13.938;2022-12-24T15:11:14;10.88;;;3.92;;
63902;SDS011;50072;50.678;13.938;2022-12-24T15:13:45;11.30;;;4.33;;
63902;SDS011;50072;50.678;13.938;2022-12-24T15:16:17;12.35;;;5.82;;
63902;SDS011;50072;50.678;13.938;2022-12-24T15:18:51;14.10;;;6.05;;
63902;SDS011;50072;50.678;13.938;2022-12-24T15:21:22;12.52;;;5.53;;
63902;SDS011;50072;50.678;13.938;2022-12-24T15:23:53;11.75;;;4.32;;
63902;SDS011;50072;50.678;13.938;2022-12-24T15:26:23;11.45;;;5.03;;
63902;SDS011;50072;50.678;13.938;2022-12-24T15:28:49;12.90;;;5.20;;
63902;SDS011;50072;50.678;13.938;2022-12-24T15:31:18;14.43;;;5.68;;
63902;SDS011;50072;50.678;13.938;2022-12-24T15:33:46;23.92;;;9.02;;
63902;SDS011;50072;50.678;13.938;2022-12-24T15:36:13;16.27;;;7.45;;
63902;SDS011;50072;50.678;13.938;2022-12-24T15:38:41;11.05;;;4.28;;
63902;SDS011;50072;50.678;13.938;2022-12-24T15:41:23;10.77;;;4.00;;
63902;SDS011;50072;50.678;13.938;2022-12-24T15:43:52;15.20;;;5.68;;
63902;SDS011;50072;50.678;13.938;2022-12-24T15:46:24;10.57;;;4.15;;
63902;SDS011;50072;50.678;13.938;2022-12-24T15:48:55;13.77;;;4.30;;
63902;SDS011;50072;50.678;13.938;2022-12-24T15:54:03;10.43;;;3.92;;
63902;SDS011;50072;50.678;13.938;2022-12-24T15:56:37;9.43;;;3.72;;
63902;SDS011;50072;50.678;13.938;2022-12-24T15:59:12;12.25;;;4.18;;
63902;SDS011;50072;50.678;13.938;2022-12-24T16:01:45;7.85;;;3.08;;
63902;SDS011;50072;50.678;13.938;2022-12-24T16:04:18;7.25;;;2.58;;
63902;SDS011;50072;50.678;13.938;2022-12-24T16:07:00;7.93;;;2.67;;
63902;SDS011;50072;50.678;13.938;2022-12-24T16:12:01;6.15;;;2.10;;
63902;SDS011;50072;50.678;13.938;2022-12-24T16:14:29;10.60;;;3.45;;
63902;SDS011;50072;50.678;13.938;2022-12-24T16:16:59;8.10;;;3.00;;
63902;SDS011;50072;50.678;13.938;2022-12-24T16:19:28;8.65;;;2.92;;
63902;SDS011;50072;50.678;13.938;2022-12-24T16:21:56;6.88;;;2.63;;
63902;SDS011;50072;50.678;13.938;2022-12-24T16:24:25;9.18;;;3.05;;
63902;SDS011;50072;50.678;13.938;2022-12-24T16:26:54;7.03;;;2.78;;
63902;SDS011;50072;50.678;13.938;2022-12-24T16:29:21;21.67;;;7.07;;
63902;SDS011;50072;50.678;13.938;2022-12-24T16:31:51;18.65;;;6.97;;
63902;SDS011;50072;50.678;13.938;2022-12-24T16:34:19;10.68;;;4.80;;
63902;SDS011;50072;50.678;13.938;2022-12-24T16:36:49;12.02;;;4.22;;
63902;SDS011;50072;50.678;13.938;2022-12-24T16:39:17;9.30;;;3.30;;
63902;SDS011;50072;50.678;13.938;2022-12-24T16:41:49;11.13;;;3.00;;
63902;SDS011;50072;50.678;13.938;2022-12-24T16:44:37;7.55;;;2.97;;
63902;SDS011;50072;50.678;13.938;2022-12-24T16:47:08;6.10;;;2.40;;
63902;SDS011;50072;50.678;13.938;2022-12-24T16:49:37;9.98;;;2.85;;
63902;SDS011;50072;50.678;13.938;2022-12-24T16:52:06;8.05;;;2.42;;
63902;SDS011;50072;50.678;13.938;2022-12-24T16:54:39;5.28;;;2.50;;
63902;SDS011;50072;50.678;13.938;2022-12-24T16:57:07;7.47;;;2.90;;
63902;SDS011;50072;50.678;13.938;2022-12-24T16:59:35;7.90;;;3.75;;
63902;SDS011;50072;50.678;13.938;2022-12-24T17:02:02;8.68;;;3.67;;
63902;SDS011;50072;50.678;13.938;2022-12-24T17:04:30;15.77;;;7.43;;
63902;SDS011;50072;50.678;13.938;2022-12-24T17:06:57;17.80;;;7.97;;
63902;SDS011;50072;50.678;13.938;2022-12-24T17:09:23;18.38;;;7.47;;
63902;SDS011;50072;50.678;13.938;2022-12-24T17:11:49;23.98;;;9.30;;
63902;SDS011;50072;50.678;13.938;2022-12-24T17:14:16;22.00;;;11.07;;
63902;SDS011;50072;50.678;13.938;2022-12-24T17:16:43;24.00;;;10.52;;
63902;SDS011;50072;50.678;13.938;2022-12-24T17:19:09;20.83;;;8.75;;
63902;SDS011;50072;50.678;13.938;2022-12-24T17:21:34;29.38;;;14.07;;
63902;SDS011;50072;50.678;13.938;2022-12-24T17:24:01;31.20;;;15.52;;
63902;SDS011;50072;50.678;13.938;2022-12-24T17:26:27;26.77;;;13.93;;
63902;SDS011;50072;50.678;13.938;2022-12-24T17:28:53;25.83;;;10.90;;